sensor_id;sensor_type;location;lat;lon;timestamp;P1;durP1;ratioP1;P2;durP2;ratioP2
5209;SDS011;2624;48.048;11.706;2024-03-06T00:05:02;12.97;;;7.13;;
5209;SDS011;2624;48.048;11.706;2024-03-06T00:10:05;10.90;;;6.13;;
5209;SDS011;2624;48.048;11.706;2024-03-06T00:15:07;8.60;;;4.07;;
5209;SDS011;2624;48.048;11.706;2024-03-06T00:20:11;16.60;;;7.53;;
5209;SDS011;2624;48.048;11.706;2024-03-06T00:25:14;10.80;;;6.80;;
5209;SDS011;2624;48.048;11.706;2024-03-06T00:30:16;9.17;;;5.30;;
5209;SDS011;2624;48.048;11.706;2024-03-06T00:35:20;10.53;;;5.70;;
5209;SDS011;2624;48.048;11.706;2024-03-06T00:40:21;8.97;;;5.30;;
5209;SDS011;2624;48.048;11.706;2024-03-06T00:45:23;9.67;;;6.03;;
5209;SDS011;2624;48.048;11.706;2024-03-06T00:50:26;7.80;;;4.40;;
5209;SDS011;2624;48.048;11.706;2024-03-06T00:55:28;12.83;;;6.47;;
5209;SDS011;2624;48.048;11.706;2024-03-06T01:00:30;10.00;;;5.63;;
5209;SDS011;2624;48.048;11.706;2024-03-06T01:05:33;10.00;;;6.13;;
5209;SDS011;2624;48.048;11.706;2024-03-06T01:10:35;8.07;;;5.60;;
5209;SDS011;2624;48.048;11.706;2024-03-06T01:15:37;8.93;;;5.33;;
5209;SDS011;2624;48.048;11.706;2024-03-06T01:20:40;6.93;;;4.70;;
5209;SDS011;2624;48.048;11.706;2024-03-06T01:25:42;10.27;;;5.63;;
5209;SDS011;2624;48.048;11.706;2024-03-06T01:30:43;11.07;;;6.03;;
5209;SDS011;2624;48.048;11.706;2024-03-06T01:35:46;11.27;;;7.33;;
5209;SDS011;2624;48.048;11.706;2024-03-06T01:40:48;12.47;;;7.40;;
5209;SDS011;2624;48.048;11.706;2024-03-06T01:45:50;12.83;;;6.40;;
5209;SDS011;2624;48.048;11.706;2024-03-06T01:50:55;3.93;;;3.00;;
5209;SDS011;2624;48.048;11.706;2024-03-06T01:55:59;1.30;;;1.30;;
5209;SDS011;2624;48.048;11.706;2024-03-06T02:01:01;1.67;;;1.63;;
5209;SDS011;2624;48.048;11.706;2024-03-06T02:06:05;1.67;;;1.50;;
5209;SDS011;2624;48.048;11.706;2024-03-06T02:11:08;1.00;;;1.00;;
5209;SDS011;2624;48.048;11.706;2024-03-06T02:16:11;0.90;;;0.90;;
5209;SDS011;2624;48.048;11.706;2024-03-06T02:21:14;1.13;;;1.00;;
5209;SDS011;2624;48.048;11.706;2024-03-06T02:26:16;0.70;;;0.70;;
5209;SDS011;2624;48.048;11.706;2024-03-06T02:31:18;0.97;;;0.50;;
5209;SDS011;2624;48.048;11.706;2024-03-06T02:36:22;1.17;;;0.80;;
5209;SDS011;2624;48.048;11.706;2024-03-06T02:41:24;0.80;;;0.80;;
5209;SDS011;2624;48.048;11.706;2024-03-06T02:46:25;1.60;;;0.77;;
5209;SDS011;2624;48.048;11.706;2024-03-06T02:51:28;0.47;;;0.47;;
5209;SDS011;2624;48.048;11.706;2024-03-06T02:56:30;0.40;;;0.40;;
5209;SDS011;2624;48.048;11.706;2024-03-06T03:01:32;0.40;;;0.40;;
5209;SDS011;2624;48.048;11.706;2024-03-06T03:06:35;0.40;;;0.40;;
5209;SDS011;2624;48.048;11.706;2024-03-06T03:11:37;0.40;;;0.40;;
5209;SDS011;2624;48.048;11.706;2024-03-06T03:16:39;0.60;;;0.50;;
5209;SDS011;2624;48.048;11.706;2024-03-06T03:21:44;0.40;;;0.40;;
5209;SDS011;2624;48.048;11.706;2024-03-06T03:26:46;0.50;;;0.50;;
5209;SDS011;2624;48.048;11.706;2024-03-06T03:31:47;0.40;;;0.40;;
5209;SDS011;2624;48.048;11.706;2024-03-06T03:36:50;0.60;;;0.60;;
5209;SDS011;2624;48.048;11.706;2024-03-06T03:41:52;0.37;;;0.37;;
5209;SDS011;2624;48.048;11.706;2024-03-06T03:46:54;0.50;;;0.50;;
5209;SDS011;2624;48.048;11.706;2024-03-06T03:51:57;0.47;;;0.47;;
5209;SDS011;2624;48.048;11.706;2024-03-06T03:56:59;0.40;;;0.40;;
5209;SDS011;2624;48.048;11.706;2024-03-06T04:02:01;0.50;;;0.50;;
5209;SDS011;2624;48.048;11.706;2024-03-06T04:07:04;0.60;;;0.60;;
5209;SDS011;2624;48.048;11.706;2024-03-06T04:12:06;0.40;;;0.40;;
5209;SDS011;2624;48.048;11.706;2024-03-06T04:17:08;0.70;;;0.70;;
5209;SDS011;2624;48.048;11.706;2024-03-06T04:22:11;0.40;;;0.40;;
5209;SDS011;2624;48.048;11.706;2024-03-06T04:27:14;0.60;;;0.50;;
5209;SDS011;2624;48.048;11.706;2024-03-06T04:32:16;0.70;;;0.70;;
5209;SDS011;2624;48.048;11.706;2024-03-06T04:37:19;0.70;;;0.70;;
5209;SDS011;2624;48.048;11.706;2024-03-06T04:42:21;0.70;;;0.70;;
5209;SDS011;2624;48.048;11.706;2024-03-06T04:47:23;0.53;;;0.53;;
5209;SDS011;2624;48.048;11.706;2024-03-06T04:52:27;0.33;;;0.33;;
5209;SDS011;2624;48.048;11.706;2024-03-06T04:57:28;0.50;;;0.50;;
5209;SDS011;2624;48.048;11.706;2024-03-06T05:02:30;1.00;;;0.50;;
5209;SDS011;2624;48.048;11.706;2024-03-06T05:07:35;0.60;;;0.60;;
5209;SDS011;2624;48.048;11.706;2024-03-06T05:12:37;0.50;;;0.50;;
5209;SDS011;2624;48.048;11.706;2024-03-06T05:17:39;0.60;;;0.53;;
5209;SDS011;2624;48.048;11.706;2024-03-06T05:22:42;0.50;;;0.50;;
5209;SDS011;2624;48.048;11.706;2024-03-06T05:27:43;0.50;;;0.50;;
5209;SDS011;2624;48.048;11.706;2024-03-06T05:32:45;0.40;;;0.40;;
5209;SDS011;2624;48.048;11.706;2024-03-06T05:37:49;0.50;;;0.50;;
5209;SDS011;2624;48.048;11.706;2024-03-06T05:42:51;0.40;;;0.40;;
5209;SDS011;2624;48.048;11.706;2024-03-06T05:47:52;0.40;;;0.40;;
5209;SDS011;2624;48.048;11.706;2024-03-06T05:52:55;0.40;;;0.40;;
5209;SDS011;2624;48.048;11.706;2024-03-06T05:57:58;0.50;;;0.50;;
5209;SDS011;2624;48.048;11.706;2024-03-06T06:03:00;0.50;;;0.50;;
5209;SDS011;2624;48.048;11.706;2024-03-06T06:08:04;0.80;;;0.80;;
5209;SDS011;2624;48.048;11.706;2024-03-06T06:13:06;0.50;;;0.50;;
5209;SDS011;2624;48.048;11.706;2024-03-06T06:18:08;0.70;;;0.70;;
5209;SDS011;2624;48.048;11.706;2024-03-06T06:23:14;0.40;;;0.40;;
5209;SDS011;2624;48.048;11.706;2024-03-06T06:28:16;0.43;;;0.43;;
5209;SDS011;2624;48.048;11.706;2024-03-06T06:33:18;0.60;;;0.60;;
5209;SDS011;2624;48.048;11.706;2024-03-06T06:38:22;0.40;;;0.40;;
5209;SDS011;2624;48.048;11.706;2024-03-06T06:43:23;0.50;;;0.50;;
5209;SDS011;2624;48.048;11.706;2024-03-06T06:48:25;1.33;;;0.70;;
5209;SDS011;2624;48.048;11.706;2024-03-06T06:53:28;0.50;;;0.50;;
5209;SDS011;2624;48.048;11.706;2024-03-06T06:58:30;0.40;;;0.40;;
5209;SDS011;2624;48.048;11.706;2024-03-06T07:03:32;3.83;;;0.60;;
5209;SDS011;2624;48.048;11.706;2024-03-06T07:08:35;0.53;;;0.53;;
5209;SDS011;2624;48.048;11.706;2024-03-06T07:13:37;0.60;;;0.60;;
5209;SDS011;2624;48.048;11.706;2024-03-06T07:18:39;0.60;;;0.60;;
5209;SDS011;2624;48.048;11.706;2024-03-06T07:23:42;0.60;;;0.60;;
5209;SDS011;2624;48.048;11.706;2024-03-06T07:28:44;0.50;;;0.50;;
5209;SDS011;2624;48.048;11.706;2024-03-06T07:33:45;3.93;;;0.67;;
5209;SDS011;2624;48.048;11.706;2024-03-06T07:38:48;0.50;;;0.50;;
5209;SDS011;2624;48.048;11.706;2024-03-06T07:43:50;0.60;;;0.60;;
5209;SDS011;2624;48.048;11.706;2024-03-06T07:48:52;0.60;;;0.60;;
5209;SDS011;2624;48.048;11.706;2024-03-06T07:53:56;0.50;;;0.50;;
5209;SDS011;2624;48.048;11.706;2024-03-06T07:58:58;0.47;;;0.47;;
5209;SDS011;2624;48.048;11.706;2024-03-06T08:04:00;0.57;;;0.57;;
5209;SDS011;2624;48.048;11.706;2024-03-06T08:09:04;0.70;;;0.70;;
5209;SDS011;2624;48.048;11.706;2024-03-06T08:14:06;0.70;;;0.70;;
5209;SDS011;2624;48.048;11.706;2024-03-06T08:19:08;0.50;;;0.50;;
5209;SDS011;2624;48.048;11.706;2024-03-06T08:24:12;0.70;;;0.70;;
5209;SDS011;2624;48.048;11.706;2024-03-06T08:29:15;0.40;;;0.40;;
5209;SDS011;2624;48.048;11.706;2024-03-06T08:34:17;0.50;;;0.50;;
5209;SDS011;2624;48.048;11.706;2024-03-06T08:39:20;0.40;;;0.40;;
5209;SDS011;2624;48.048;11.706;2024-03-06T08:44:21;0.40;;;0.40;;
5209;SDS011;2624;48.048;11.706;2024-03-06T08:49:23;0.50;;;0.50;;
5209;SDS011;2624;48.048;11.706;2024-03-06T08:54:26;0.50;;;0.50;;
5209;SDS011;2624;48.048;11.706;2024-03-06T08:59:30;0.40;;;0.40;;
5209;SDS011;2624;48.048;11.706;2024-03-06T09:04:31;0.60;;;0.60;;
5209;SDS011;2624;48.048;11.706;2024-03-06T09:09:35;0.40;;;0.40;;
5209;SDS011;2624;48.048;11.706;2024-03-06T09:14:37;1.13;;;0.80;;
5209;SDS011;2624;48.048;11.706;2024-03-06T09:19:40;0.70;;;0.70;;
5209;SDS011;2624;48.048;11.706;2024-03-06T09:24:43;0.70;;;0.70;;
5209;SDS011;2624;48.048;11.706;2024-03-06T09:29:45;1.20;;;0.93;;
5209;SDS011;2624;48.048;11.706;2024-03-06T09:34:47;0.53;;;0.53;;
5209;SDS011;2624;48.048;11.706;2024-03-06T09:39:51;0.53;;;0.53;;
5209;SDS011;2624;48.048;11.706;2024-03-06T09:44:52;0.70;;;0.70;;
5209;SDS011;2624;48.048;11.706;2024-03-06T09:49:54;0.67;;;0.67;;
5209;SDS011;2624;48.048;11.706;2024-03-06T09:54:57;0.70;;;0.70;;
5209;SDS011;2624;48.048;11.706;2024-03-06T10:00:00;0.80;;;0.80;;
5209;SDS011;2624;48.048;11.706;2024-03-06T10:05:02;0.60;;;0.60;;
5209;SDS011;2624;48.048;11.706;2024-03-06T10:10:07;0.80;;;0.80;;
5209;SDS011;2624;48.048;11.706;2024-03-06T10:15:10;0.60;;;0.60;;
5209;SDS011;2624;48.048;11.706;2024-03-06T10:20:16;1.70;;;0.80;;
5209;SDS011;2624;48.048;11.706;2024-03-06T10:25:22;1.80;;;0.60;;
5209;SDS011;2624;48.048;11.706;2024-03-06T10:30:24;0.40;;;0.40;;
5209;SDS011;2624;48.048;11.706;2024-03-06T10:35:26;0.53;;;0.53;;
5209;SDS011;2624;48.048;11.706;2024-03-06T10:40:29;0.47;;;0.47;;
5209;SDS011;2624;48.048;11.706;2024-03-06T10:45:35;0.50;;;0.50;;
5209;SDS011;2624;48.048;11.706;2024-03-06T10:50:43;0.90;;;0.80;;
5209;SDS011;2624;48.048;11.706;2024-03-06T10:55:47;0.50;;;0.50;;
5209;SDS011;2624;48.048;11.706;2024-03-06T11:00:50;0.70;;;0.70;;
5209;SDS011;2624;48.048;11.706;2024-03-06T11:05:53;0.73;;;0.73;;
5209;SDS011;2624;48.048;11.706;2024-03-06T11:11:04;0.53;;;0.53;;
5209;SDS011;2624;48.048;11.706;2024-03-06T11:16:26;0.50;;;0.50;;
5209;SDS011;2624;48.048;11.706;2024-03-06T11:21:29;0.90;;;0.90;;
5209;SDS011;2624;48.048;11.706;2024-03-06T11:26:33;0.70;;;0.60;;
5209;SDS011;2624;48.048;11.706;2024-03-06T11:31:36;1.07;;;0.53;;
5209;SDS011;2624;48.048;11.706;2024-03-06T11:36:40;0.80;;;0.67;;
5209;SDS011;2624;48.048;11.706;2024-03-06T11:41:47;10.77;;;6.00;;
5209;SDS011;2624;48.048;11.706;2024-03-06T11:46:56;6.77;;;3.73;;
5209;SDS011;2624;48.048;11.706;2024-03-06T11:52:01;15.80;;;7.37;;
5209;SDS011;2624;48.048;11.706;2024-03-06T11:57:06;55.50;;;19.97;;
5209;SDS011;2624;48.048;11.706;2024-03-06T12:02:10;9.50;;;5.50;;
5209;SDS011;2624;48.048;11.706;2024-03-06T12:07:13;2.60;;;2.30;;
5209;SDS011;2624;48.048;11.706;2024-03-06T12:12:17;2.97;;;1.10;;
5209;SDS011;2624;48.048;11.706;2024-03-06T12:17:19;1.80;;;1.70;;
5209;SDS011;2624;48.048;11.706;2024-03-06T12:22:24;2.83;;;1.50;;
5209;SDS011;2624;48.048;11.706;2024-03-06T12:27:27;12.27;;;7.00;;
5209;SDS011;2624;48.048;11.706;2024-03-06T12:32:29;5.10;;;3.60;;
5209;SDS011;2624;48.048;11.706;2024-03-06T12:37:31;21.77;;;6.83;;
5209;SDS011;2624;48.048;11.706;2024-03-06T12:42:35;8.23;;;3.63;;
5209;SDS011;2624;48.048;11.706;2024-03-06T12:47:37;2.77;;;1.43;;
5209;SDS011;2624;48.048;11.706;2024-03-06T12:52:39;1.23;;;1.13;;
5209;SDS011;2624;48.048;11.706;2024-03-06T12:57:42;17.53;;;4.00;;
5209;SDS011;2624;48.048;11.706;2024-03-06T13:02:44;3.60;;;1.50;;
5209;SDS011;2624;48.048;11.706;2024-03-06T13:07:46;3.20;;;1.60;;
5209;SDS011;2624;48.048;11.706;2024-03-06T13:12:49;27.80;;;8.00;;
5209;SDS011;2624;48.048;11.706;2024-03-06T13:17:51;18.60;;;6.23;;
5209;SDS011;2624;48.048;11.706;2024-03-06T13:22:53;3.43;;;2.00;;
5209;SDS011;2624;48.048;11.706;2024-03-06T13:27:56;22.70;;;8.10;;
5209;SDS011;2624;48.048;11.706;2024-03-06T13:32:59;9.10;;;4.83;;
5209;SDS011;2624;48.048;11.706;2024-03-06T13:38:00;1.67;;;1.57;;
5209;SDS011;2624;48.048;11.706;2024-03-06T13:43:04;1.60;;;1.50;;
5209;SDS011;2624;48.048;11.706;2024-03-06T13:48:13;3.97;;;2.40;;
5209;SDS011;2624;48.048;11.706;2024-03-06T13:53:16;1.60;;;1.50;;
5209;SDS011;2624;48.048;11.706;2024-03-06T13:58:19;6.37;;;3.70;;
5209;SDS011;2624;48.048;11.706;2024-03-06T14:03:21;14.33;;;7.03;;
5209;SDS011;2624;48.048;11.706;2024-03-06T14:08:24;6.63;;;2.80;;
5209;SDS011;2624;48.048;11.706;2024-03-06T14:13:27;7.57;;;1.67;;
5209;SDS011;2624;48.048;11.706;2024-03-06T14:18:29;0.70;;;0.70;;
5209;SDS011;2624;48.048;11.706;2024-03-06T14:23:31;1.50;;;1.10;;
5209;SDS011;2624;48.048;11.706;2024-03-06T14:28:34;19.07;;;7.10;;
5209;SDS011;2624;48.048;11.706;2024-03-06T14:33:36;63.37;;;20.80;;
5209;SDS011;2624;48.048;11.706;2024-03-06T14:38:39;40.17;;;14.93;;
5209;SDS011;2624;48.048;11.706;2024-03-06T14:43:42;34.53;;;10.10;;
5209;SDS011;2624;48.048;11.706;2024-03-06T14:48:45;7.33;;;2.43;;
5209;SDS011;2624;48.048;11.706;2024-03-06T14:53:47;1.83;;;1.60;;
5209;SDS011;2624;48.048;11.706;2024-03-06T14:58:50;1.33;;;1.23;;
5209;SDS011;2624;48.048;11.706;2024-03-06T15:03:53;1.70;;;1.37;;
5209;SDS011;2624;48.048;11.706;2024-03-06T15:08:55;8.47;;;6.60;;
5209;SDS011;2624;48.048;11.706;2024-03-06T15:13:58;1.70;;;1.60;;
5209;SDS011;2624;48.048;11.706;2024-03-06T15:19:00;1.67;;;1.57;;
5209;SDS011;2624;48.048;11.706;2024-03-06T15:24:03;1.77;;;1.67;;
5209;SDS011;2624;48.048;11.706;2024-03-06T15:29:07;2.30;;;1.53;;
5209;SDS011;2624;48.048;11.706;2024-03-06T15:34:09;3.60;;;1.30;;
5209;SDS011;2624;48.048;11.706;2024-03-06T15:39:12;1.13;;;1.07;;
5209;SDS011;2624;48.048;11.706;2024-03-06T15:44:15;7.83;;;2.03;;
5209;SDS011;2624;48.048;11.706;2024-03-06T15:49:20;1.17;;;1.17;;
5209;SDS011;2624;48.048;11.706;2024-03-06T15:54:25;0.50;;;0.50;;
5209;SDS011;2624;48.048;11.706;2024-03-06T15:59:28;1.10;;;1.10;;
5209;SDS011;2624;48.048;11.706;2024-03-06T16:04:31;0.93;;;0.93;;
5209;SDS011;2624;48.048;11.706;2024-03-06T16:09:33;1.20;;;1.10;;
5209;SDS011;2624;48.048;11.706;2024-03-06T16:14:36;4.73;;;1.30;;
5209;SDS011;2624;48.048;11.706;2024-03-06T16:19:38;1.30;;;1.20;;
5209;SDS011;2624;48.048;11.706;2024-03-06T16:24:41;1.13;;;1.13;;
5209;SDS011;2624;48.048;11.706;2024-03-06T16:29:45;1.30;;;1.20;;
5209;SDS011;2624;48.048;11.706;2024-03-06T16:34:47;0.90;;;0.90;;
5209;SDS011;2624;48.048;11.706;2024-03-06T16:39:49;0.80;;;0.77;;
5209;SDS011;2624;48.048;11.706;2024-03-06T16:44:52;1.83;;;1.70;;
5209;SDS011;2624;48.048;11.706;2024-03-06T16:49:54;1.00;;;1.00;;
5209;SDS011;2624;48.048;11.706;2024-03-06T16:54:56;1.27;;;0.90;;
5209;SDS011;2624;48.048;11.706;2024-03-06T16:59:59;1.63;;;1.17;;
5209;SDS011;2624;48.048;11.706;2024-03-06T17:05:01;1.37;;;1.37;;
5209;SDS011;2624;48.048;11.706;2024-03-06T17:10:03;6.57;;;0.80;;
5209;SDS011;2624;48.048;11.706;2024-03-06T17:15:07;0.83;;;0.83;;
5209;SDS011;2624;48.048;11.706;2024-03-06T17:20:09;1.73;;;1.63;;
5209;SDS011;2624;48.048;11.706;2024-03-06T17:25:11;1.40;;;1.40;;
5209;SDS011;2624;48.048;11.706;2024-03-06T17:30:14;1.67;;;1.57;;
5209;SDS011;2624;48.048;11.706;2024-03-06T17:35:16;4.00;;;3.10;;
5209;SDS011;2624;48.048;11.706;2024-03-06T17:40:18;2.93;;;2.77;;
5209;SDS011;2624;48.048;11.706;2024-03-06T17:45:21;1.53;;;1.50;;
5209;SDS011;2624;48.048;11.706;2024-03-06T17:50:23;1.80;;;1.70;;
5209;SDS011;2624;48.048;11.706;2024-03-06T17:55:25;1.50;;;1.37;;
5209;SDS011;2624;48.048;11.706;2024-03-06T18:00:28;1.53;;;1.43;;
5209;SDS011;2624;48.048;11.706;2024-03-06T18:05:30;2.10;;;2.00;;
5209;SDS011;2624;48.048;11.706;2024-03-06T18:10:32;2.73;;;2.60;;
5209;SDS011;2624;48.048;11.706;2024-03-06T18:15:35;2.27;;;2.17;;
5209;SDS011;2624;48.048;11.706;2024-03-06T18:20:37;2.40;;;2.20;;
5209;SDS011;2624;48.048;11.706;2024-03-06T18:25:39;1.43;;;1.33;;
5209;SDS011;2624;48.048;11.706;2024-03-06T18:30:42;2.20;;;2.10;;
5209;SDS011;2624;48.048;11.706;2024-03-06T18:35:44;2.50;;;2.30;;
5209;SDS011;2624;48.048;11.706;2024-03-06T18:40:46;1.40;;;1.40;;
5209;SDS011;2624;48.048;11.706;2024-03-06T18:45:49;4.80;;;3.30;;
5209;SDS011;2624;48.048;11.706;2024-03-06T18:50:51;6.73;;;3.60;;
5209;SDS011;2624;48.048;11.706;2024-03-06T18:55:53;2.80;;;2.70;;
5209;SDS011;2624;48.048;11.706;2024-03-06T19:00:56;3.13;;;2.93;;
5209;SDS011;2624;48.048;11.706;2024-03-06T19:05:58;3.20;;;2.90;;
5209;SDS011;2624;48.048;11.706;2024-03-06T19:10:59;2.50;;;2.37;;
5209;SDS011;2624;48.048;11.706;2024-03-06T19:16:03;2.73;;;2.53;;
5209;SDS011;2624;48.048;11.706;2024-03-06T19:21:05;2.87;;;2.47;;
5209;SDS011;2624;48.048;11.706;2024-03-06T19:26:08;3.20;;;2.90;;
5209;SDS011;2624;48.048;11.706;2024-03-06T19:31:11;3.57;;;3.33;;
5209;SDS011;2624;48.048;11.706;2024-03-06T19:36:13;3.60;;;1.80;;
5209;SDS011;2624;48.048;11.706;2024-03-06T19:41:15;3.90;;;3.50;;
5209;SDS011;2624;48.048;11.706;2024-03-06T19:46:18;7.80;;;3.43;;
5209;SDS011;2624;48.048;11.706;2024-03-06T19:51:19;3.40;;;3.10;;
5209;SDS011;2624;48.048;11.706;2024-03-06T19:56:22;3.10;;;2.90;;
5209;SDS011;2624;48.048;11.706;2024-03-06T20:01:26;6.30;;;3.87;;
5209;SDS011;2624;48.048;11.706;2024-03-06T20:06:28;3.83;;;3.40;;
5209;SDS011;2624;48.048;11.706;2024-03-06T20:11:30;6.53;;;4.77;;
5209;SDS011;2624;48.048;11.706;2024-03-06T20:16:33;7.57;;;4.30;;
5209;SDS011;2624;48.048;11.706;2024-03-06T20:21:36;11.03;;;3.70;;
5209;SDS011;2624;48.048;11.706;2024-03-06T20:26:39;4.77;;;3.67;;
5209;SDS011;2624;48.048;11.706;2024-03-06T20:31:44;7.27;;;4.70;;
5209;SDS011;2624;48.048;11.706;2024-03-06T20:36:46;3.37;;;2.97;;
5209;SDS011;2624;48.048;11.706;2024-03-06T20:41:48;4.47;;;4.07;;
5209;SDS011;2624;48.048;11.706;2024-03-06T20:46:52;4.30;;;3.80;;
5209;SDS011;2624;48.048;11.706;2024-03-06T20:51:54;3.27;;;2.97;;
5209;SDS011;2624;48.048;11.706;2024-03-06T20:56:55;4.60;;;3.90;;
5209;SDS011;2624;48.048;11.706;2024-03-06T21:01:58;3.77;;;3.50;;
5209;SDS011;2624;48.048;11.706;2024-03-06T21:07:00;4.00;;;3.60;;
5209;SDS011;2624;48.048;11.706;2024-03-06T21:12:02;4.00;;;3.20;;
5209;SDS011;2624;48.048;11.706;2024-03-06T21:17:06;5.90;;;3.57;;
5209;SDS011;2624;48.048;11.706;2024-03-06T21:22:08;4.40;;;3.13;;
5209;SDS011;2624;48.048;11.706;2024-03-06T21:27:10;3.30;;;3.10;;
5209;SDS011;2624;48.048;11.706;2024-03-06T21:32:14;4.80;;;3.90;;
5209;SDS011;2624;48.048;11.706;2024-03-06T21:37:17;2.13;;;1.97;;
5209;SDS011;2624;48.048;11.706;2024-03-06T21:42:19;4.80;;;4.10;;
5209;SDS011;2624;48.048;11.706;2024-03-06T21:47:22;2.60;;;2.40;;
5209;SDS011;2624;48.048;11.706;2024-03-06T21:52:25;2.23;;;2.07;;
5209;SDS011;2624;48.048;11.706;2024-03-06T21:57:26;4.50;;;3.10;;
5209;SDS011;2624;48.048;11.706;2024-03-06T22:02:29;3.07;;;2.80;;
5209;SDS011;2624;48.048;11.706;2024-03-06T22:07:31;2.93;;;2.23;;
5209;SDS011;2624;48.048;11.706;2024-03-06T22:12:33;2.23;;;1.93;;
5209;SDS011;2624;48.048;11.706;2024-03-06T22:17:36;2.57;;;2.43;;
5209;SDS011;2624;48.048;11.706;2024-03-06T22:22:38;2.20;;;2.07;;
5209;SDS011;2624;48.048;11.706;2024-03-06T22:27:40;4.47;;;3.30;;
5209;SDS011;2624;48.048;11.706;2024-03-06T22:32:43;7.87;;;3.70;;
5209;SDS011;2624;48.048;11.706;2024-03-06T22:37:45;2.83;;;2.50;;
5209;SDS011;2624;48.048;11.706;2024-03-06T22:42:47;3.20;;;3.00;;
5209;SDS011;2624;48.048;11.706;2024-03-06T22:47:50;2.83;;;2.57;;
5209;SDS011;2624;48.048;11.706;2024-03-06T22:52:53;9.27;;;4.50;;
5209;SDS011;2624;48.048;11.706;2024-03-06T22:57:55;8.30;;;3.80;;
5209;SDS011;2624;48.048;11.706;2024-03-06T23:03:01;9.57;;;4.67;;
5209;SDS011;2624;48.048;11.706;2024-03-06T23:08:03;6.13;;;3.50;;
5209;SDS011;2624;48.048;11.706;2024-03-06T23:13:05;2.80;;;2.30;;
5209;SDS011;2624;48.048;11.706;2024-03-06T23:18:08;2.40;;;2.27;;
5209;SDS011;2624;48.048;11.706;2024-03-06T23:23:10;3.43;;;3.00;;
5209;SDS011;2624;48.048;11.706;2024-03-06T23:28:13;3.20;;;2.40;;
5209;SDS011;2624;48.048;11.706;2024-03-06T23:33:16;3.43;;;3.13;;
5209;SDS011;2624;48.048;11.706;2024-03-06T23:38:18;3.30;;;3.07;;
5209;SDS011;2624;48.048;11.706;2024-03-06T23:43:20;2.47;;;2.27;;
5209;SDS011;2624;48.048;11.706;2024-03-06T23:48:23;2.30;;;2.10;;
5209;SDS011;2624;48.048;11.706;2024-03-06T23:53:26;2.50;;;2.27;;
5209;SDS011;2624;48.048;11.706;2024-03-06T23:58:27;2.83;;;2.30;;
